Time;durP1;ratioP1;P1;durP2;ratioP2;P2;SDS_P1;SDS_P2;PMS_P1;PMS_P2;Temp;Humidity;BMP_temperature;BMP_pressure;BME280_temperature;BME280_humidity;BME280_pressure;Samples;Min_cycle;Max_cycle;Signal;HPM_P1;HPM_P2
2022/09/27 00:00:38;;;;;;;14.05;4.18;;;;;;;12.05;100.00;99100.44;5049657;28;20048;-73
2022/09/27 00:03:04;;;;;;;14.88;3.25;;;;;;;12.07;100.00;99109.13;5049274;28;20048;-73
2022/09/27 00:05:31;;;;;;;11.15;3.00;;;;;;;12.07;100.00;99111.09;5049676;28;20048;-73
2022/09/27 00:07:57;;;;;;;12.10;2.65;;;;;;;11.99;100.00;99113.34;5049848;28;20131;-72
2022/09/27 00:10:24;;;;;;;7.82;2.20;;;;;;;11.95;100.00;99117.44;5050100;28;20052;-74
2022/09/27 00:12:51;;;;;;;11.52;2.75;;;;;;;11.96;100.00;99116.22;5051381;28;20049;-72
2022/09/27 00:15:19;;;;;;;8.13;2.95;;;;;;;11.96;100.00;99119.00;5043121;28;20056;-72
2022/09/27 00:17:46;;;;;;;12.63;2.55;;;;;;;11.96;100.00;99128.09;5048851;28;20499;-71
2022/09/27 00:20:12;;;;;;;11.88;2.55;;;;;;;11.90;100.00;99129.84;5044481;28;20060;-70
2022/09/27 00:22:39;;;;;;;6.90;2.13;;;;;;;11.75;100.00;99128.72;5041972;28;20056;-71
2022/09/27 00:25:06;;;;;;;12.50;2.35;;;;;;;11.83;100.00;99137.59;5050984;28;20056;-72
2022/09/27 00:27:33;;;;;;;8.65;2.40;;;;;;;11.84;100.00;99139.16;5050020;28;20060;-74
2022/09/27 00:29:59;;;;;;;13.38;2.25;;;;;;;11.80;100.00;99130.19;5052966;28;20060;-72
2022/09/27 00:32:26;;;;;;;8.07;1.98;;;;;;;11.80;100.00;99133.72;5050998;28;20076;-74
2022/09/27 00:34:53;;;;;;;9.68;2.45;;;;;;;11.77;100.00;99129.06;5051259;28;20052;-74
2022/09/27 00:37:20;;;;;;;12.07;2.65;;;;;;;11.75;100.00;99133.50;5049538;28;20059;-73
2022/09/27 00:39:46;;;;;;;12.65;2.88;;;;;;;11.75;100.00;99134.28;5051188;28;20052;-74
2022/09/27 00:42:14;;;;;;;13.13;2.78;;;;;;;11.69;100.00;99141.59;5043498;28;20055;-74
2022/09/27 00:44:40;;;;;;;11.52;2.63;;;;;;;11.71;100.00;99144.69;5051255;28;20059;-72
2022/09/27 00:47:33;;;;;;;13.93;2.95;;;;;;;11.74;100.00;99137.50;5051043;28;20052;-74
2022/09/27 00:50:26;;;;;;;8.90;2.90;;;;;;;11.72;100.00;99140.72;5049080;28;20048;-74
2022/09/27 00:53:08;;;;;;;12.90;2.50;;;;;;;11.75;100.00;99147.38;5044982;28;20045;-72
2022/09/27 00:55:41;;;;;;;15.70;3.22;;;;;;;11.75;100.00;99141.81;5045936;28;20056;-74
2022/09/27 00:58:11;;;;;;;15.35;4.10;;;;;;;11.70;100.00;99145.13;5051228;28;20105;-72
2022/09/27 01:00:43;;;;;;;12.77;3.70;;;;;;;11.61;100.00;99136.69;5049615;28;20681;-74
2022/09/27 01:03:14;;;;;;;11.55;4.15;;;;;;;11.68;100.00;99147.59;5050567;28;20048;-70
2022/09/27 01:05:41;;;;;;;19.00;4.85;;;;;;;11.72;100.00;99148.25;5049851;28;20055;-75
2022/09/27 01:08:08;;;;;;;12.98;4.72;;;;;;;11.75;100.00;99155.69;5051676;28;20048;-73
2022/09/27 01:10:42;;;;;;;8.00;2.47;;;;;;;11.61;100.00;99151.31;5052370;28;20536;-73
2022/09/27 01:13:22;;;;;;;16.83;4.55;;;;;;;11.67;100.00;99143.25;5050476;28;20044;-72
2022/09/27 01:16:03;;;;;;;23.40;9.77;;;;;;;11.62;100.00;99150.13;5048193;28;20048;-71
2022/09/27 01:19:04;;;;;;;16.58;4.88;;;;;;;11.63;100.00;99162.75;5047591;28;20566;-74
2022/09/27 01:21:53;;;;;;;21.88;5.00;;;;;;;11.60;100.00;99169.16;5047196;28;20059;-74
2022/09/27 01:24:48;;;;;;;16.42;6.18;;;;;;;11.65;100.00;99167.84;5048811;28;20794;-73
2022/09/27 01:28:04;;;;;;;19.02;6.03;;;;;;;11.62;100.00;99166.75;5045007;28;20064;-74
2022/09/27 01:30:56;;;;;;;16.42;4.97;;;;;;;11.52;100.00;99165.03;5046349;28;20126;-74
2022/09/27 01:33:50;;;;;;;17.13;6.38;;;;;;;11.57;100.00;99170.03;5041447;28;20055;-72
2022/09/27 01:36:30;;;;;;;18.38;6.82;;;;;;;11.57;100.00;99161.72;5044577;28;20066;-71
2022/09/27 01:39:24;;;;;;;19.23;5.95;;;;;;;11.56;100.00;99156.63;5049191;28;20052;-74
2022/09/27 01:42:04;;;;;;;15.45;6.35;;;;;;;11.52;100.00;99153.19;5048122;28;20102;-74
2022/09/27 01:44:49;;;;;;;15.63;6.60;;;;;;;11.54;100.00;99161.84;5064667;28;20056;-71
2022/09/27 01:47:23;;;;;;;14.80;5.22;;;;;;;11.51;100.00;99157.94;5067320;28;20049;-70
2022/09/27 01:50:10;;;;;;;13.63;5.60;;;;;;;11.48;100.00;99166.34;5069634;28;20055;-71
2022/09/27 01:52:45;;;;;;;21.65;7.07;;;;;;;11.50;100.00;99166.69;5062248;28;20048;-72
2022/09/27 01:55:15;;;;;;;8.20;3.45;;;;;;;11.42;100.00;99160.59;5068997;28;20728;-71
2022/09/27 01:57:48;;;;;;;20.20;5.78;;;;;;;11.48;100.00;99158.06;5068517;28;20056;-70
2022/09/27 02:00:15;;;;;;;20.63;8.70;;;;;;;11.52;100.00;99158.72;5069311;28;20052;-71
2022/09/27 02:02:47;;;;;;;22.52;8.05;;;;;;;11.52;100.00;99170.59;5066514;28;20052;-70
2022/09/27 02:05:17;;;;;;;24.77;8.40;;;;;;;11.51;100.00;99169.00;5065781;28;20501;-68
2022/09/27 02:08:02;;;;;;;20.45;8.88;;;;;;;11.55;100.00;99168.91;5063662;28;20072;-69
2022/09/27 02:10:34;;;;;;;21.05;9.50;;;;;;;11.55;100.00;99164.16;5062318;28;20059;-66
2022/09/27 02:13:05;;;;;;;24.40;9.60;;;;;;;11.57;100.00;99167.25;5055926;28;20790;-70
2022/09/27 02:15:44;;;;;;;23.85;9.63;;;;;;;11.57;100.00;99169.25;5064164;28;20051;-69
2022/09/27 02:18:17;;;;;;;21.00;8.32;;;;;;;11.52;100.00;99167.03;5059764;28;20793;-71
2022/09/27 02:20:53;;;;;;;21.50;9.38;;;;;;;11.61;100.00;99178.25;5060877;28;20417;-70
2022/09/27 02:23:33;;;;;;;22.65;8.68;;;;;;;11.61;100.00;99173.50;5058866;28;20052;-73
2022/09/27 02:26:09;;;;;;;14.38;6.88;;;;;;;11.53;100.00;99182.41;5054645;28;20053;-72
2022/09/27 02:28:50;;;;;;;20.83;6.55;;;;;;;11.55;100.00;99180.00;5062567;28;20428;-71
2022/09/27 02:31:17;;;;;;;15.95;6.35;;;;;;;11.54;100.00;99178.44;5061119;28;20052;-70
2022/09/27 02:33:47;;;;;;;14.23;5.95;;;;;;;11.56;100.00;99181.53;5066524;28;20580;-72
2022/09/27 02:36:14;;;;;;;14.25;5.30;;;;;;;11.56;100.00;99181.53;5063919;28;20094;-69
2022/09/27 02:38:42;;;;;;;2.60;1.65;;;;;;;11.45;100.00;99178.31;5058985;28;20052;-73
2022/09/27 02:41:16;;;;;;;15.50;5.40;;;;;;;11.55;100.00;99177.22;5062819;28;20052;-70
2022/09/27 02:43:45;;;;;;;11.60;3.90;;;;;;;11.53;100.00;99191.50;5064588;28;20101;-70
2022/09/27 02:46:39;;;;;;;14.68;4.43;;;;;;;11.55;100.00;99191.88;5062712;28;20049;-69
2022/09/27 02:49:28;;;;;;;13.55;4.45;;;;;;;11.52;100.00;99189.19;5063662;28;20049;-72
2022/09/27 02:52:13;;;;;;;15.20;5.07;;;;;;;11.57;100.00;99192.19;5061821;28;20051;-69
2022/09/27 02:54:48;;;;;;;16.88;5.43;;;;;;;11.56;100.00;99195.38;5056054;28;20164;-72
2022/09/27 02:57:45;;;;;;;13.82;4.38;;;;;;;11.49;100.00;99190.84;5064582;28;20098;-71
2022/09/27 03:00:12;;;;;;;10.68;3.85;;;;;;;11.51;100.00;99188.41;5058215;28;20506;-71
2022/09/27 03:03:06;;;;;;;11.07;2.95;;;;;;;11.36;100.00;99190.03;5066548;28;20358;-72
2022/09/27 03:05:39;;;;;;;13.73;3.88;;;;;;;11.45;100.00;99190.19;5059973;28;20130;-72
2022/09/27 03:08:06;;;;;;;15.73;3.47;;;;;;;11.35;100.00;99193.25;5051687;28;20055;-72
2022/09/27 03:10:33;;;;;;;11.88;3.80;;;;;;;11.38;100.00;99193.16;5059739;28;20040;-71
2022/09/27 03:12:59;;;;;;;12.25;4.07;;;;;;;11.35;100.00;99190.47;5059470;28;20040;-71
2022/09/27 03:15:26;;;;;;;10.32;3.67;;;;;;;11.29;100.00;99194.97;5058621;28;20056;-73
2022/09/27 03:17:52;;;;;;;9.65;3.80;;;;;;;11.31;100.00;99192.56;5067116;28;20040;-72
2022/09/27 03:20:19;;;;;;;13.63;3.25;;;;;;;11.23;100.00;99208.59;5057949;28;20056;-71
2022/09/27 03:22:45;;;;;;;9.57;2.50;;;;;;;11.16;100.00;99206.03;5059309;28;20103;-72
2022/09/27 03:25:12;;;;;;;15.15;5.53;;;;;;;11.31;100.00;99209.19;5060112;28;20140;-70
2022/09/27 03:27:39;;;;;;;14.52;5.60;;;;;;;11.28;100.00;99210.06;5057862;28;20059;-71
2022/09/27 03:30:06;;;;;;;14.13;4.63;;;;;;;11.17;100.00;99209.56;5064976;28;20053;-71
2022/09/27 03:32:33;;;;;;;16.35;5.65;;;;;;;11.11;100.00;99205.78;5057525;28;20048;-73
2022/09/27 03:34:59;;;;;;;9.23;4.30;;;;;;;11.12;100.00;99207.31;5060376;28;20048;-71
2022/09/27 03:37:28;;;;;;;12.93;4.80;;;;;;;11.14;100.00;99207.69;5057930;28;20061;-70
2022/09/27 03:39:54;;;;;;;19.60;6.15;;;;;;;11.11;100.00;99205.78;5052719;28;20040;-72
2022/09/27 03:42:21;;;;;;;13.38;5.80;;;;;;;11.06;100.00;99218.16;5058629;28;20049;-73
2022/09/27 03:44:47;;;;;;;14.00;5.80;;;;;;;11.03;100.00;99216.25;5063226;28;20382;-72
2022/09/27 03:47:14;;;;;;;17.80;6.25;;;;;;;11.03;100.00;99215.50;5061119;28;20130;-69
2022/09/27 03:49:40;;;;;;;9.40;3.67;;;;;;;10.87;100.00;99204.44;5064462;28;20075;-71
2022/09/27 03:52:07;;;;;;;11.30;5.43;;;;;;;10.94;100.00;99223.63;5065998;28;20048;-70
2022/09/27 03:54:33;;;;;;;13.60;5.30;;;;;;;10.92;100.00;99210.22;5058884;28;20049;-72
2022/09/27 03:57:00;;;;;;;17.00;6.35;;;;;;;10.96;100.00;99207.34;5056057;28;20078;-71
2022/09/27 03:59:26;;;;;;;17.90;5.95;;;;;;;11.00;100.00;99221.91;5054553;28;20520;-68
2022/09/27 04:01:53;;;;;;;15.23;3.20;;;;;;;10.88;100.00;99230.91;5060158;28;20056;-71
2022/09/27 04:04:20;;;;;;;17.83;6.25;;;;;;;10.97;100.00;99231.81;5061732;28;20678;-71
2022/09/27 04:06:46;;;;;;;18.02;6.38;;;;;;;10.94;100.00;99231.94;5065537;28;20067;-70
2022/09/27 04:09:13;;;;;;;7.45;2.42;;;;;;;10.88;100.00;99222.59;5055999;28;20082;-71
2022/09/27 04:11:39;;;;;;;19.35;8.30;;;;;;;10.95;100.00;99227.94;5053503;28;20057;-70
2022/09/27 04:14:07;;;;;;;12.05;4.30;;;;;;;10.88;100.00;99233.66;5057872;28;20139;-70
2022/09/27 04:16:34;;;;;;;9.07;3.70;;;;;;;10.90;100.00;99232.00;5065478;28;20044;-70
2022/09/27 04:19:01;;;;;;;14.15;6.05;;;;;;;10.85;100.00;99243.63;5066628;28;20067;-71
2022/09/27 04:21:28;;;;;;;34.85;16.63;;;;;;;11.03;100.00;99243.94;5066582;28;20048;-70
2022/09/27 04:23:54;;;;;;;32.22;14.60;;;;;;;10.99;100.00;99246.00;5059273;28;20047;-71
2022/09/27 04:26:21;;;;;;;30.35;15.82;;;;;;;11.02;100.00;99247.13;5063955;28;20429;-71
2022/09/27 04:28:50;;;;;;;34.55;16.95;;;;;;;11.05;100.00;99244.28;5061823;28;20079;-70
2022/09/27 04:31:20;;;;;;;28.60;13.02;;;;;;;11.02;100.00;99242.38;5070531;28;20060;-71
2022/09/27 04:33:46;;;;;;;33.00;14.10;;;;;;;11.05;100.00;99251.78;5070236;28;20655;-70
2022/09/27 04:36:27;;;;;;;25.58;10.40;;;;;;;10.99;100.00;99250.75;5070388;28;20052;-71
2022/09/27 04:39:02;;;;;;;17.85;7.40;;;;;;;10.90;100.00;99250.63;5056224;28;20049;-71
2022/09/27 04:41:29;;;;;;;25.98;11.98;;;;;;;10.99;100.00;99243.25;5066743;28;20060;-69
2022/09/27 04:43:59;;;;;;;23.90;11.75;;;;;;;10.92;100.00;99243.44;5055979;28;20056;-71
2022/09/27 04:46:31;;;;;;;12.48;4.05;;;;;;;10.82;100.00;99249.22;5060006;28;20060;-70
2022/09/27 04:48:59;;;;;;;20.90;10.55;;;;;;;10.84;100.00;99255.13;5069776;28;20049;-71
2022/09/27 04:51:26;;;;;;;27.38;15.23;;;;;;;10.92;100.00;99248.97;5063659;28;20052;-70
2022/09/27 04:53:54;;;;;;;25.38;16.30;;;;;;;10.85;100.00;99253.91;5058271;28;20052;-70
2022/09/27 04:56:20;;;;;;;28.77;16.23;;;;;;;10.80;100.00;99255.19;5066633;28;20056;-71
2022/09/27 04:58:47;;;;;;;30.80;18.27;;;;;;;10.76;100.00;99257.28;5061673;28;20109;-70
2022/09/27 05:01:14;;;;;;;34.50;18.17;;;;;;;10.76;100.00;99260.03;5062099;28;20049;-68
2022/09/27 05:03:40;;;;;;;27.88;13.57;;;;;;;10.76;100.00;99264.81;5060073;28;20049;-71
2022/09/27 05:06:07;;;;;;;31.40;16.02;;;;;;;10.72;100.00;99269.63;5062205;28;20048;-68
2022/09/27 05:08:34;;;;;;;27.35;14.25;;;;;;;10.64;100.00;99271.03;5069713;28;20045;-70
2022/09/27 05:11:00;;;;;;;30.83;14.65;;;;;;;10.71;100.00;99266.09;5056658;28;20061;-70
2022/09/27 05:13:27;;;;;;;11.93;5.60;;;;;;;10.66;100.00;99271.38;5066002;28;20050;-71
2022/09/27 05:15:53;;;;;;;25.70;12.13;;;;;;;10.66;100.00;99274.16;5067119;28;20048;-71
2022/09/27 05:18:20;;;;;;;19.77;8.27;;;;;;;10.71;100.00;99279.16;5054673;28;20130;-70
2022/09/27 05:20:46;;;;;;;18.90;6.65;;;;;;;10.64;100.00;99273.78;5065378;28;20501;-70
2022/09/27 05:23:14;;;;;;;19.45;6.97;;;;;;;10.65;100.00;99278.09;5063518;28;20543;-73
2022/09/27 05:25:41;;;;;;;18.48;4.85;;;;;;;10.61;100.00;99285.72;5061241;28;20056;-70
2022/09/27 05:28:08;;;;;;;19.25;6.40;;;;;;;10.70;100.00;99286.66;5057368;28;20048;-70
2022/09/27 05:30:35;;;;;;;10.20;4.32;;;;;;;10.64;100.00;99276.56;5059691;28;20048;-71
2022/09/27 05:33:02;;;;;;;14.32;4.65;;;;;;;10.66;100.00;99293.50;5065315;28;20494;-68
2022/09/27 05:35:29;;;;;;;2.92;0.90;;;;;;;10.56;100.00;99289.78;5057138;28;20052;-69
2022/09/27 05:37:58;;;;;;;11.15;3.80;;;;;;;10.66;100.00;99285.97;5058776;28;20080;-70
2022/09/27 05:40:26;;;;;;;6.93;2.25;;;;;;;10.64;100.00;99285.66;5062689;28;20068;-70
2022/09/27 05:43:08;;;;;;;13.52;3.47;;;;;;;10.66;100.00;99296.28;5056262;28;20048;-70
2022/09/27 05:45:35;;;;;;;13.48;3.53;;;;;;;10.61;100.00;99286.50;5055569;28;20083;-72
2022/09/27 05:48:02;;;;;;;3.70;1.13;;;;;;;10.56;100.00;99294.53;5065493;28;20060;-73
2022/09/27 05:50:28;;;;;;;5.80;1.80;;;;;;;10.57;100.00;99293.31;5058999;28;20059;-69
2022/09/27 05:52:55;;;;;;;5.45;1.88;;;;;;;10.50;100.00;99299.81;5067011;28;20044;-72
2022/09/27 05:55:21;;;;;;;4.05;1.33;;;;;;;10.54;100.00;99306.03;5058034;28;20119;-72
2022/09/27 05:58:05;;;;;;;11.80;3.78;;;;;;;10.56;100.00;99308.38;5064901;28;20140;-71
2022/09/27 06:00:32;;;;;;;12.32;3.03;;;;;;;10.59;100.00;99301.97;5062768;28;20048;-72
2022/09/27 06:03:02;;;;;;;9.15;3.03;;;;;;;10.66;100.00;99307.34;5059238;28;20053;-71
2022/09/27 06:05:33;;;;;;;11.20;3.08;;;;;;;10.66;100.00;99307.34;5062912;28;20051;-73
2022/09/27 06:08:06;;;;;;;7.90;2.33;;;;;;;10.61;100.00;99310.59;5059442;28;20037;-72
2022/09/27 06:10:33;;;;;;;2.28;1.27;;;;;;;10.56;100.00;99305.59;5049789;28;20485;-72
2022/09/27 06:13:01;;;;;;;9.13;2.50;;;;;;;10.61;100.00;99311.41;5055824;28;20055;-72
2022/09/27 06:15:30;;;;;;;13.40;3.85;;;;;;;10.67;100.00;99300.59;5060617;28;20032;-72
2022/09/27 06:17:57;;;;;;;9.60;3.22;;;;;;;10.66;100.00;99307.34;5065185;28;20053;-73
2022/09/27 06:20:24;;;;;;;8.73;2.33;;;;;;;10.56;100.00;99297.31;5064579;28;20045;-72
2022/09/27 06:22:52;;;;;;;10.50;1.85;;;;;;;10.53;100.00;99310.00;5063236;28;20543;-72
2022/09/27 06:25:19;;;;;;;7.97;2.20;;;;;;;10.48;100.00;99316.84;5059749;28;20119;-74
2022/09/27 06:27:46;;;;;;;11.80;3.58;;;;;;;10.62;100.00;99312.94;5060227;28;20040;-72
2022/09/27 06:30:12;;;;;;;12.68;3.05;;;;;;;10.67;100.00;99315.22;5059681;28;20040;-70
2022/09/27 06:32:45;;;;;;;9.57;3.33;;;;;;;10.68;100.00;99322.28;5059684;28;20129;-72
2022/09/27 06:35:12;;;;;;;14.25;3.33;;;;;;;10.72;100.00;99317.44;5064614;28;20048;-72
2022/09/27 06:37:38;;;;;;;10.80;3.47;;;;;;;10.66;100.00;99318.41;5063232;28;20064;-69
2022/09/27 06:40:07;;;;;;;5.00;1.38;;;;;;;10.53;100.00;99327.38;5061957;28;20064;-70
2022/09/27 06:42:34;;;;;;;4.45;1.50;;;;;;;10.54;100.00;99334.44;5058301;28;20051;-70
2022/09/27 06:45:01;;;;;;;11.32;3.42;;;;;;;10.66;100.00;99351.59;5068098;28;20045;-70
2022/09/27 06:47:28;;;;;;;7.97;3.20;;;;;;;10.68;100.00;99343.63;5069085;28;20059;-69
2022/09/27 06:49:55;;;;;;;14.38;3.30;;;;;;;10.69;100.00;99345.22;5067737;28;20052;-70
2022/09/27 06:52:21;;;;;;;8.77;2.35;;;;;;;10.65;100.00;99345.28;5066467;28;20063;-70
2022/09/27 06:54:48;;;;;;;7.47;1.95;;;;;;;10.65;100.00;99356.34;5067976;28;20178;-70
2022/09/27 07:00:22;;;;;;;6.78;1.30;;;;;;;10.65;100.00;99342.50;5068253;28;20048;-70
2022/09/27 07:02:46;;;;;;;4.97;1.58;;;;;;;10.60;100.00;99354.09;5065364;28;20628;-73
2022/09/27 07:05:13;;;;;;;1.95;0.98;;;;;;;10.68;100.00;99349.94;5065697;28;20040;-71
2022/09/27 07:07:39;;;;;;;8.23;2.88;;;;;;;10.74;100.00;99361.28;5064257;28;20044;-70
2022/09/27 07:10:06;;;;;;;6.25;1.58;;;;;;;10.75;100.00;99358.09;5051356;28;20041;-71
2022/09/27 07:12:35;;;;;;;9.93;2.53;;;;;;;10.71;100.00;99362.13;5063825;28;20058;-73
2022/09/27 07:15:04;;;;;;;7.95;2.30;;;;;;;10.74;100.00;99355.75;5057651;28;20685;-71
2022/09/27 07:17:31;;;;;;;6.78;1.77;;;;;;;10.73;100.00;99363.25;5066839;28;20060;-69
2022/09/27 07:19:57;;;;;;;10.35;1.80;;;;;;;10.78;100.00;99364.75;5059249;28;20056;-69
2022/09/27 07:22:24;;;;;;;0.63;0.60;;;;;;;10.74;100.00;99369.59;5064267;28;20052;-68
2022/09/27 07:24:50;;;;;;;4.15;1.50;;;;;;;10.74;100.00;99370.38;5059077;28;20485;-71
2022/09/27 07:27:17;;;;;;;15.05;2.50;;;;;;;10.74;100.00;99362.06;5061526;28;20102;-68
2022/09/27 07:29:43;;;;;;;6.88;2.17;;;;;;;10.88;100.00;99372.81;5065819;28;20044;-70
2022/09/27 07:32:10;;;;;;;10.48;2.55;;;;;;;10.83;100.00;99375.31;5060473;28;20059;-68
2022/09/27 07:34:36;;;;;;;1.83;0.88;;;;;;;10.80;100.00;99381.69;5054594;28;20049;-68
2022/09/27 07:37:04;;;;;;;7.63;1.73;;;;;;;10.83;100.00;99372.53;5067271;28;20059;-68
2022/09/27 07:39:31;;;;;;;1.25;0.80;;;;;;;10.84;100.00;99385.16;5066652;28;20055;-68
2022/09/27 07:41:57;;;;;;;4.47;1.15;;;;;;;10.78;100.00;99386.88;5061389;28;20057;-68
2022/09/27 07:44:24;;;;;;;0.20;0.20;;;;;;;10.87;100.00;99387.81;5066850;28;20555;-68
2022/09/27 07:46:50;;;;;;;5.43;1.25;;;;;;;10.88;100.00;99386.63;5066105;28;20114;-68
2022/09/27 07:49:17;;;;;;;6.78;1.88;;;;;;;11.05;100.00;99390.97;5067175;28;20044;-67
2022/09/27 07:51:43;;;;;;;8.48;1.95;;;;;;;11.08;100.00;99400.41;5064040;28;20047;-68
2022/09/27 07:54:10;;;;;;;4.22;1.65;;;;;;;11.06;100.00;99388.97;5061148;28;20132;-69
2022/09/27 07:56:36;;;;;;;2.60;1.55;;;;;;;11.11;100.00;99394.78;5057502;28;20060;-70
2022/09/27 07:59:03;;;;;;;10.05;2.20;;;;;;;11.12;100.00;99395.53;5062498;28;20041;-69
2022/09/27 08:01:29;;;;;;;1.20;0.47;;;;;;;11.08;100.00;99403.16;5059237;28;20493;-68
2022/09/27 08:03:57;;;;;;;4.60;2.08;;;;;;;11.22;100.00;99409.13;5060082;28;20605;-68
2022/09/27 08:06:24;;;;;;;8.90;2.40;;;;;;;11.35;100.00;99409.22;5058612;28;20048;-68
2022/09/27 08:08:50;;;;;;;8.93;2.45;;;;;;;11.33;100.00;99417.16;5060781;28;20060;-68
2022/09/27 08:11:17;;;;;;;2.83;1.02;;;;;;;11.34;100.00;99413.97;5066493;28;20058;-68
2022/09/27 08:13:45;;;;;;;10.73;2.58;;;;;;;11.45;100.00;99420.03;5054646;28;20040;-67
2022/09/27 08:16:12;;;;;;;9.57;2.55;;;;;;;11.44;100.00;99426.78;5067444;28;20051;-69
2022/09/27 08:18:39;;;;;;;4.97;2.13;;;;;;;11.45;100.00;99422.03;5057940;28;20037;-70
2022/09/27 08:21:06;;;;;;;10.77;2.58;;;;;;;11.57;100.00;99433.19;5066056;28;20060;-69
2022/09/27 08:23:32;;;;;;;2.10;0.70;;;;;;;11.52;100.00;99436.47;5064287;28;20610;-68
2022/09/27 08:25:59;;;;;;;5.35;1.67;;;;;;;11.54;100.00;99434.03;5062266;28;20040;-68
2022/09/27 08:28:26;;;;;;;2.90;1.02;;;;;;;11.69;100.00;99449.13;5057390;28;20067;-70
2022/09/27 08:30:52;;;;;;;7.53;2.33;;;;;;;11.96;100.00;99444.06;5062997;28;20079;-70
2022/09/27 08:33:19;;;;;;;4.15;1.25;;;;;;;11.83;100.00;99446.00;5062476;28;20044;-66
2022/09/27 08:35:46;;;;;;;4.82;1.85;;;;;;;11.82;100.00;99438.09;5058888;28;20049;-67
2022/09/27 08:38:12;;;;;;;2.65;1.48;;;;;;;11.90;100.00;99445.00;5068892;28;20098;-69
2022/09/27 08:40:48;;;;;;;4.13;1.40;;;;;;;11.86;100.00;99434.03;5068946;28;20045;-69
2022/09/27 08:43:36;;;;;;;8.50;2.83;;;;;;;12.03;100.00;99443.88;5060528;28;20195;-68
2022/09/27 08:46:21;;;;;;;2.53;1.35;;;;;;;11.83;100.00;99445.19;5063530;28;20060;-69
2022/09/27 08:48:52;;;;;;;8.80;2.13;;;;;;;11.95;100.00;99436.19;5065826;28;20052;-68
2022/09/27 08:51:25;;;;;;;3.58;1.75;;;;;;;12.04;100.00;99439.09;5090939;28;20083;-68
2022/09/27 08:53:59;;;;;;;5.88;1.85;;;;;;;11.87;100.00;99432.81;5068734;28;20516;-68
2022/09/27 08:56:26;;;;;;;1.97;1.30;;;;;;;12.07;100.00;99447.31;5069050;28;20053;-66
2022/09/27 08:59:26;;;;;;;3.20;1.05;;;;;;;12.25;100.00;99450.38;5069651;28;20048;-70
2022/09/27 09:01:53;;;;;;;3.83;1.67;;;;;;;12.14;100.00;99440.78;5068037;28;20044;-68
2022/09/27 09:04:35;;;;;;;6.00;2.38;;;;;;;12.34;100.00;99439.44;5069367;28;20139;-68
2022/09/27 09:07:36;;;;;;;8.00;2.95;;;;;;;12.17;100.00;99442.69;5064490;28;20053;-69
2022/09/27 09:12:45;;;;;;;4.90;2.05;;;;;;;12.22;100.00;99450.47;5066867;28;20078;-68
2022/09/27 09:13:33;;;;;;;8.63;3.78;;;;;;;12.28;100.00;99437.63;5066045;28;20531;-67
2022/09/27 09:16:30;;;;;;;4.53;2.28;;;;;;;12.20;100.00;99447.34;5065723;28;20445;-67
2022/09/27 09:19:27;;;;;;;6.32;3.00;;;;;;;12.13;100.00;99442.00;5064240;28;20048;-68
2022/09/27 09:22:20;;;;;;;9.20;4.03;;;;;;;12.27;100.00;99444.38;5064065;28;20097;-68
2022/09/27 09:25:14;;;;;;;4.97;2.58;;;;;;;12.20;100.00;99448.16;5064915;28;20056;-69
2022/09/27 09:27:41;;;;;;;5.47;3.45;;;;;;;12.24;100.00;99440.50;5066313;28;20049;-67
2022/09/27 09:30:24;;;;;;;8.65;3.60;;;;;;;12.00;100.00;99457.81;5068135;28;20048;-68
2022/09/27 09:32:53;;;;;;;5.88;2.53;;;;;;;11.97;100.00;99456.69;5062198;28;20422;-71
2022/09/27 09:35:36;;;;;;;3.15;1.50;;;;;;;12.12;100.00;99449.53;5064254;28;20706;-68
2022/09/27 09:38:10;;;;;;;6.03;2.70;;;;;;;12.03;100.00;99438.31;5068067;28;20067;-70
2022/09/27 09:40:43;;;;;;;7.20;3.45;;;;;;;11.95;100.00;99448.03;5067406;28;20051;-70
2022/09/27 09:43:19;;;;;;;6.70;2.53;;;;;;;12.11;100.00;99439.69;5063325;28;20136;-67
2022/09/27 09:45:51;;;;;;;7.05;2.67;;;;;;;12.19;100.00;99445.81;5065810;28;20048;-68
2022/09/27 09:48:24;;;;;;;8.77;1.95;;;;;;;12.17;100.00;99457.34;5065890;28;20109;-69
2022/09/27 09:50:55;;;;;;;8.38;2.15;;;;;;;12.27;100.00;99450.72;5066422;28;20052;-68
2022/09/27 09:53:54;;;;;;;5.72;2.47;;;;;;;12.33;100.00;99451.75;5067797;28;20075;-68
2022/09/27 09:56:25;;;;;;;6.32;3.13;;;;;;;12.38;100.00;99455.94;5064779;28;20057;-67
2022/09/27 09:59:01;;;;;;;8.30;3.38;;;;;;;12.31;100.00;99443.06;5066460;28;20053;-70
2022/09/27 10:01:42;;;;;;;5.63;2.38;;;;;;;12.31;100.00;99448.63;5061611;28;20473;-71
2022/09/27 10:04:21;;;;;;;9.65;3.03;;;;;;;12.34;100.00;99455.28;5051669;28;20060;-69
2022/09/27 10:06:48;;;;;;;5.57;2.67;;;;;;;12.11;100.00;99453.53;5071282;28;20053;-68
2022/09/27 10:09:19;;;;;;;3.97;2.38;;;;;;;12.29;100.00;99451.03;5082209;28;20052;-68
2022/09/27 10:11:46;;;;;;;8.05;3.22;;;;;;;12.09;100.00;99450.41;5067855;28;20052;-70
2022/09/27 10:14:16;;;;;;;4.40;1.50;;;;;;;12.08;100.00;99446.09;5068034;28;20049;-68
2022/09/27 10:16:48;;;;;;;8.43;3.40;;;;;;;11.96;100.00;99454.34;5065206;28;20127;-70
2022/09/27 10:19:21;;;;;;;4.93;2.20;;;;;;;11.90;100.00;99443.03;5067118;28;20056;-69
2022/09/27 10:21:50;;;;;;;9.80;4.13;;;;;;;12.29;100.00;99445.50;5059905;28;20044;-69
2022/09/27 10:24:20;;;;;;;7.30;3.20;;;;;;;12.15;100.00;99436.81;5067151;28;20048;-69
2022/09/27 10:26:49;;;;;;;8.75;4.10;;;;;;;12.24;100.00;99443.28;5066880;28;20052;-68
2022/09/27 10:29:28;;;;;;;5.63;2.45;;;;;;;12.34;100.00;99441.41;5066833;28;20056;-69
2022/09/27 10:32:03;;;;;;;10.00;4.05;;;;;;;12.38;100.00;99442.09;5064896;28;20048;-69
2022/09/27 10:34:33;;;;;;;12.15;4.60;;;;;;;12.46;100.00;99441.44;5061149;28;20048;-67
2022/09/27 10:37:10;;;;;;;6.82;3.00;;;;;;;12.40;100.00;99431.34;5065574;28;20798;-68
2022/09/27 10:39:40;;;;;;;7.30;2.85;;;;;;;12.26;100.00;99442.84;5065090;28;20067;-69
2022/09/27 10:42:29;;;;;;;6.28;3.08;;;;;;;12.20;100.00;99437.06;5065581;28;20525;-68
2022/09/27 10:44:56;;;;;;;2.53;1.90;;;;;;;12.29;100.00;99423.31;5067215;28;20136;-67
2022/09/27 10:47:25;;;;;;;4.28;2.15;;;;;;;12.38;100.00;99442.88;5065448;28;20948;-68
2022/09/27 10:50:04;;;;;;;11.45;4.38;;;;;;;12.53;100.00;99434.94;5065139;28;20135;-67
2022/09/27 10:52:30;;;;;;;8.13;3.13;;;;;;;12.56;100.00;99439.59;5064418;28;20051;-69
2022/09/27 10:55:35;;;;;;;11.60;3.22;;;;;;;12.58;100.00;99431.59;5053391;28;20041;-72
2022/09/27 10:58:03;;;;;;;7.55;3.40;;;;;;;12.55;100.00;99427.72;5006306;28;20050;-71
2022/09/27 11:00:35;;;;;;;17.50;6.20;;;;;;;12.58;100.00;99421.28;5039972;28;20126;-69
2022/09/27 11:03:13;;;;;;;10.63;5.18;;;;;;;12.63;100.00;99429.03;5045644;28;20048;-73
2022/09/27 11:05:39;;;;;;;13.68;3.50;;;;;;;12.24;100.00;99434.97;5045641;28;20052;-71
2022/09/27 11:08:18;;;;;;;13.65;6.50;;;;;;;12.54;100.00;99430.94;5044674;28;20554;-71
2022/09/27 11:10:59;;;;;;;11.88;6.13;;;;;;;12.46;100.00;99422.03;5046931;28;20059;-71
2022/09/27 11:13:31;;;;;;;16.27;6.30;;;;;;;12.35;100.00;99415.22;5040483;28;20051;-71
2022/09/27 11:16:15;;;;;;;17.42;8.15;;;;;;;12.43;100.00;99422.16;5038427;28;20055;-71
2022/09/27 11:18:45;;;;;;;18.15;7.25;;;;;;;12.33;100.00;99417.69;5040082;28;20122;-72
2022/09/27 11:21:44;;;;;;;18.38;7.20;;;;;;;12.43;100.00;99422.16;5042854;28;20052;-71
2022/09/27 11:24:27;;;;;;;10.55;3.65;;;;;;;12.32;100.00;99411.34;5045141;28;20052;-72
2022/09/27 11:27:12;;;;;;;14.32;6.68;;;;;;;12.31;100.00;99409.00;5042961;28;20493;-73
2022/09/27 11:29:38;;;;;;;14.20;5.80;;;;;;;12.20;100.00;99422.41;5044755;28;20048;-73
2022/09/27 11:32:32;;;;;;;15.88;6.85;;;;;;;12.17;100.00;99414.97;5060529;28;20048;-69
2022/09/27 11:35:25;;;;;;;14.20;6.75;;;;;;;12.00;100.00;99419.00;5042930;28;20036;-72
2022/09/27 11:38:08;;;;;;;13.82;6.15;;;;;;;11.92;100.00;99417.66;5042838;28;20052;-71
2022/09/27 11:41:10;;;;;;;14.35;6.72;;;;;;;12.01;100.00;99417.78;5040519;28;20117;-72
2022/09/27 11:43:54;;;;;;;4.57;2.55;;;;;;;11.92;100.00;99412.09;5038440;28;20055;-70
2022/09/27 11:46:28;;;;;;;9.73;4.03;;;;;;;11.95;100.00;99409.22;5049052;28;20056;-68